sensor_id;sensor_type;location;lat;lon;timestamp;P1;durP1;ratioP1;P2;durP2;ratioP2
42148;SDS011;64624;47.208;8.706;2024-01-15T00:02:08;8.93;;;5.25;;
42148;SDS011;64624;47.208;8.706;2024-01-15T00:04:37;9.02;;;4.90;;
42148;SDS011;64624;47.208;8.706;2024-01-15T00:07:04;7.93;;;4.55;;
42148;SDS011;64624;47.208;8.706;2024-01-15T00:09:30;9.73;;;4.50;;
42148;SDS011;64624;47.208;8.706;2024-01-15T00:11:56;9.25;;;5.00;;
42148;SDS011;64624;47.208;8.706;2024-01-15T00:14:22;8.60;;;4.90;;
42148;SDS011;64624;47.208;8.706;2024-01-15T00:16:48;8.98;;;4.88;;
42148;SDS011;64624;47.208;8.706;2024-01-15T00:19:16;9.48;;;5.03;;
42148;SDS011;64624;47.208;8.706;2024-01-15T00:21:44;8.02;;;4.53;;
42148;SDS011;64624;47.208;8.706;2024-01-15T00:24:10;7.82;;;4.82;;
42148;SDS011;64624;47.208;8.706;2024-01-15T00:26:37;7.35;;;4.32;;
42148;SDS011;64624;47.208;8.706;2024-01-15T00:29:03;8.98;;;5.13;;
42148;SDS011;64624;47.208;8.706;2024-01-15T00:31:29;8.30;;;4.47;;
42148;SDS011;64624;47.208;8.706;2024-01-15T00:33:55;9.63;;;5.00;;
42148;SDS011;64624;47.208;8.706;2024-01-15T00:36:22;7.43;;;4.47;;
42148;SDS011;64624;47.208;8.706;2024-01-15T00:38:48;8.07;;;4.40;;
42148;SDS011;64624;47.208;8.706;2024-01-15T00:41:14;8.43;;;4.50;;
42148;SDS011;64624;47.208;8.706;2024-01-15T00:43:40;8.20;;;4.53;;
42148;SDS011;64624;47.208;8.706;2024-01-15T00:46:06;8.73;;;4.85;;
42148;SDS011;64624;47.208;8.706;2024-01-15T00:48:32;8.77;;;5.00;;
42148;SDS011;64624;47.208;8.706;2024-01-15T00:50:58;7.70;;;4.13;;
42148;SDS011;64624;47.208;8.706;2024-01-15T00:53:25;7.82;;;4.57;;
42148;SDS011;64624;47.208;8.706;2024-01-15T00:55:51;8.32;;;4.78;;
42148;SDS011;64624;47.208;8.706;2024-01-15T00:58:16;8.18;;;4.20;;
42148;SDS011;64624;47.208;8.706;2024-01-15T01:00:42;7.95;;;4.90;;
42148;SDS011;64624;47.208;8.706;2024-01-15T01:03:08;6.78;;;4.25;;
42148;SDS011;64624;47.208;8.706;2024-01-15T01:05:34;7.20;;;4.38;;
42148;SDS011;64624;47.208;8.706;2024-01-15T01:08:00;7.25;;;4.57;;
42148;SDS011;64624;47.208;8.706;2024-01-15T01:10:26;8.77;;;4.18;;
42148;SDS011;64624;47.208;8.706;2024-01-15T01:12:52;6.70;;;4.20;;
42148;SDS011;64624;47.208;8.706;2024-01-15T01:15:18;8.10;;;4.72;;
42148;SDS011;64624;47.208;8.706;2024-01-15T01:17:44;7.30;;;4.47;;
42148;SDS011;64624;47.208;8.706;2024-01-15T01:20:09;8.43;;;4.60;;
42148;SDS011;64624;47.208;8.706;2024-01-15T01:22:35;9.35;;;4.63;;
42148;SDS011;64624;47.208;8.706;2024-01-15T01:25:05;7.23;;;3.90;;
42148;SDS011;64624;47.208;8.706;2024-01-15T01:27:31;7.88;;;4.60;;
42148;SDS011;64624;47.208;8.706;2024-01-15T01:29:57;7.38;;;4.47;;
42148;SDS011;64624;47.208;8.706;2024-01-15T01:32:22;6.88;;;4.35;;
42148;SDS011;64624;47.208;8.706;2024-01-15T01:34:48;6.63;;;4.13;;
42148;SDS011;64624;47.208;8.706;2024-01-15T01:37:14;8.63;;;4.63;;
42148;SDS011;64624;47.208;8.706;2024-01-15T01:39:40;7.38;;;4.25;;
42148;SDS011;64624;47.208;8.706;2024-01-15T01:42:06;9.48;;;5.00;;
42148;SDS011;64624;47.208;8.706;2024-01-15T01:44:32;8.65;;;4.43;;
42148;SDS011;64624;47.208;8.706;2024-01-15T01:46:59;8.90;;;4.30;;
42148;SDS011;64624;47.208;8.706;2024-01-15T01:49:28;7.00;;;4.25;;
42148;SDS011;64624;47.208;8.706;2024-01-15T01:51:57;8.13;;;4.63;;
42148;SDS011;64624;47.208;8.706;2024-01-15T01:54:29;7.03;;;4.20;;
42148;SDS011;64624;47.208;8.706;2024-01-15T01:56:56;7.57;;;4.22;;
42148;SDS011;64624;47.208;8.706;2024-01-15T01:59:23;7.78;;;4.22;;
42148;SDS011;64624;47.208;8.706;2024-01-15T02:01:52;8.13;;;4.55;;
42148;SDS011;64624;47.208;8.706;2024-01-15T02:04:19;7.65;;;4.30;;
42148;SDS011;64624;47.208;8.706;2024-01-15T02:06:48;6.05;;;3.58;;
42148;SDS011;64624;47.208;8.706;2024-01-15T02:09:15;7.70;;;4.20;;
42148;SDS011;64624;47.208;8.706;2024-01-15T02:11:46;7.85;;;4.60;;
42148;SDS011;64624;47.208;8.706;2024-01-15T02:14:17;8.10;;;4.50;;
42148;SDS011;64624;47.208;8.706;2024-01-15T02:16:43;7.88;;;4.53;;
42148;SDS011;64624;47.208;8.706;2024-01-15T02:19:14;8.10;;;4.50;;
42148;SDS011;64624;47.208;8.706;2024-01-15T02:21:43;7.88;;;4.50;;
42148;SDS011;64624;47.208;8.706;2024-01-15T02:24:09;8.07;;;4.55;;
42148;SDS011;64624;47.208;8.706;2024-01-15T02:26:35;7.10;;;4.20;;
42148;SDS011;64624;47.208;8.706;2024-01-15T02:29:03;9.13;;;4.30;;
42148;SDS011;64624;47.208;8.706;2024-01-15T02:31:30;7.97;;;4.50;;
42148;SDS011;64624;47.208;8.706;2024-01-15T02:33:55;7.93;;;4.45;;
42148;SDS011;64624;47.208;8.706;2024-01-15T02:36:21;8.68;;;4.82;;
42148;SDS011;64624;47.208;8.706;2024-01-15T02:38:47;6.07;;;3.90;;
42148;SDS011;64624;47.208;8.706;2024-01-15T02:41:12;9.02;;;4.30;;
42148;SDS011;64624;47.208;8.706;2024-01-15T02:43:39;9.13;;;4.20;;
42148;SDS011;64624;47.208;8.706;2024-01-15T02:46:06;8.57;;;4.50;;
42148;SDS011;64624;47.208;8.706;2024-01-15T02:48:32;7.95;;;4.35;;
42148;SDS011;64624;47.208;8.706;2024-01-15T02:51:00;9.23;;;4.88;;
42148;SDS011;64624;47.208;8.706;2024-01-15T02:53:26;8.52;;;4.53;;
42148;SDS011;64624;47.208;8.706;2024-01-15T02:55:51;8.48;;;5.07;;
42148;SDS011;64624;47.208;8.706;2024-01-15T02:58:17;9.88;;;5.30;;
42148;SDS011;64624;47.208;8.706;2024-01-15T03:00:43;10.10;;;5.32;;
42148;SDS011;64624;47.208;8.706;2024-01-15T03:03:09;9.90;;;4.97;;
42148;SDS011;64624;47.208;8.706;2024-01-15T03:05:34;8.75;;;5.00;;
42148;SDS011;64624;47.208;8.706;2024-01-15T03:08:03;9.63;;;5.82;;
42148;SDS011;64624;47.208;8.706;2024-01-15T03:10:29;9.77;;;5.45;;
42148;SDS011;64624;47.208;8.706;2024-01-15T03:12:55;10.90;;;5.72;;
42148;SDS011;64624;47.208;8.706;2024-01-15T03:15:20;12.57;;;7.05;;
42148;SDS011;64624;47.208;8.706;2024-01-15T03:17:47;11.73;;;6.50;;
42148;SDS011;64624;47.208;8.706;2024-01-15T03:20:12;11.63;;;6.45;;
42148;SDS011;64624;47.208;8.706;2024-01-15T03:22:38;11.23;;;6.15;;
42148;SDS011;64624;47.208;8.706;2024-01-15T03:25:04;11.38;;;5.95;;
42148;SDS011;64624;47.208;8.706;2024-01-15T03:27:31;12.75;;;6.53;;
42148;SDS011;64624;47.208;8.706;2024-01-15T03:29:56;12.27;;;6.25;;
42148;SDS011;64624;47.208;8.706;2024-01-15T03:32:22;14.85;;;7.50;;
42148;SDS011;64624;47.208;8.706;2024-01-15T03:34:48;12.05;;;6.30;;
42148;SDS011;64624;47.208;8.706;2024-01-15T03:37:14;12.05;;;6.15;;
42148;SDS011;64624;47.208;8.706;2024-01-15T03:39:40;13.18;;;6.55;;
42148;SDS011;64624;47.208;8.706;2024-01-15T03:42:06;13.63;;;7.15;;
42148;SDS011;64624;47.208;8.706;2024-01-15T03:44:32;12.07;;;7.03;;
42148;SDS011;64624;47.208;8.706;2024-01-15T03:46:57;13.20;;;7.70;;
42148;SDS011;64624;47.208;8.706;2024-01-15T03:49:23;15.70;;;7.18;;
42148;SDS011;64624;47.208;8.706;2024-01-15T03:51:49;14.50;;;6.85;;
42148;SDS011;64624;47.208;8.706;2024-01-15T03:54:15;16.20;;;7.35;;
42148;SDS011;64624;47.208;8.706;2024-01-15T03:56:41;15.50;;;8.77;;
42148;SDS011;64624;47.208;8.706;2024-01-15T03:59:07;15.45;;;8.10;;
42148;SDS011;64624;47.208;8.706;2024-01-15T04:01:32;16.73;;;8.65;;
42148;SDS011;64624;47.208;8.706;2024-01-15T04:03:58;13.48;;;6.90;;
42148;SDS011;64624;47.208;8.706;2024-01-15T04:06:24;14.80;;;7.82;;
42148;SDS011;64624;47.208;8.706;2024-01-15T04:08:50;16.95;;;8.43;;
42148;SDS011;64624;47.208;8.706;2024-01-15T04:11:15;13.07;;;7.47;;
42148;SDS011;64624;47.208;8.706;2024-01-15T04:13:41;15.23;;;7.97;;
42148;SDS011;64624;47.208;8.706;2024-01-15T04:16:07;16.55;;;8.55;;
42148;SDS011;64624;47.208;8.706;2024-01-15T04:18:32;15.02;;;8.10;;
42148;SDS011;64624;47.208;8.706;2024-01-15T04:20:58;16.98;;;7.55;;
42148;SDS011;64624;47.208;8.706;2024-01-15T04:23:24;15.02;;;7.53;;
42148;SDS011;64624;47.208;8.706;2024-01-15T04:25:50;18.23;;;8.70;;
42148;SDS011;64624;47.208;8.706;2024-01-15T04:28:15;16.63;;;8.50;;
42148;SDS011;64624;47.208;8.706;2024-01-15T04:30:41;16.25;;;7.60;;
42148;SDS011;64624;47.208;8.706;2024-01-15T04:33:07;15.32;;;8.65;;
42148;SDS011;64624;47.208;8.706;2024-01-15T04:35:32;15.07;;;7.50;;
42148;SDS011;64624;47.208;8.706;2024-01-15T04:38:01;16.38;;;8.15;;
42148;SDS011;64624;47.208;8.706;2024-01-15T04:40:27;16.35;;;8.30;;
42148;SDS011;64624;47.208;8.706;2024-01-15T04:42:54;16.65;;;9.32;;
42148;SDS011;64624;47.208;8.706;2024-01-15T04:45:20;17.88;;;8.73;;
42148;SDS011;64624;47.208;8.706;2024-01-15T04:47:48;17.33;;;8.43;;
42148;SDS011;64624;47.208;8.706;2024-01-15T04:50:14;16.42;;;8.25;;
42148;SDS011;64624;47.208;8.706;2024-01-15T04:52:40;14.55;;;8.60;;
42148;SDS011;64624;47.208;8.706;2024-01-15T04:55:05;18.95;;;8.98;;
42148;SDS011;64624;47.208;8.706;2024-01-15T04:57:31;16.88;;;8.05;;
42148;SDS011;64624;47.208;8.706;2024-01-15T04:59:57;16.55;;;7.72;;
42148;SDS011;64624;47.208;8.706;2024-01-15T05:02:23;19.30;;;9.50;;
42148;SDS011;64624;47.208;8.706;2024-01-15T05:04:49;16.67;;;8.82;;
42148;SDS011;64624;47.208;8.706;2024-01-15T05:07:14;17.67;;;9.27;;
42148;SDS011;64624;47.208;8.706;2024-01-15T05:09:40;15.52;;;8.07;;
42148;SDS011;64624;47.208;8.706;2024-01-15T05:12:06;17.38;;;9.05;;
42148;SDS011;64624;47.208;8.706;2024-01-15T05:14:32;17.95;;;9.13;;
42148;SDS011;64624;47.208;8.706;2024-01-15T05:16:58;15.95;;;8.10;;
42148;SDS011;64624;47.208;8.706;2024-01-15T05:19:23;17.02;;;8.20;;
42148;SDS011;64624;47.208;8.706;2024-01-15T05:21:49;17.73;;;8.70;;
42148;SDS011;64624;47.208;8.706;2024-01-15T05:24:15;17.38;;;9.57;;
42148;SDS011;64624;47.208;8.706;2024-01-15T05:26:41;17.10;;;8.50;;
42148;SDS011;64624;47.208;8.706;2024-01-15T05:29:06;16.10;;;8.48;;
42148;SDS011;64624;47.208;8.706;2024-01-15T05:31:32;16.30;;;8.65;;
42148;SDS011;64624;47.208;8.706;2024-01-15T05:33:58;15.23;;;7.80;;
42148;SDS011;64624;47.208;8.706;2024-01-15T05:36:23;15.13;;;8.45;;
42148;SDS011;64624;47.208;8.706;2024-01-15T05:38:49;16.80;;;9.18;;
42148;SDS011;64624;47.208;8.706;2024-01-15T05:41:15;17.00;;;9.10;;
42148;SDS011;64624;47.208;8.706;2024-01-15T05:43:41;16.45;;;8.27;;
42148;SDS011;64624;47.208;8.706;2024-01-15T05:46:06;17.40;;;8.40;;
42148;SDS011;64624;47.208;8.706;2024-01-15T05:48:32;17.17;;;8.40;;
42148;SDS011;64624;47.208;8.706;2024-01-15T05:50:58;16.50;;;8.23;;
42148;SDS011;64624;47.208;8.706;2024-01-15T05:53:24;16.67;;;8.20;;
42148;SDS011;64624;47.208;8.706;2024-01-15T05:55:49;16.40;;;8.40;;
42148;SDS011;64624;47.208;8.706;2024-01-15T05:58:15;18.55;;;9.02;;
42148;SDS011;64624;47.208;8.706;2024-01-15T06:00:43;15.80;;;7.82;;
42148;SDS011;64624;47.208;8.706;2024-01-15T06:03:11;14.90;;;8.00;;
42148;SDS011;64624;47.208;8.706;2024-01-15T06:05:36;16.48;;;8.85;;
42148;SDS011;64624;47.208;8.706;2024-01-15T06:08:02;14.07;;;7.55;;
42148;SDS011;64624;47.208;8.706;2024-01-15T06:10:28;14.75;;;7.10;;
42148;SDS011;64624;47.208;8.706;2024-01-15T06:12:54;14.93;;;7.43;;
42148;SDS011;64624;47.208;8.706;2024-01-15T06:15:20;13.38;;;6.80;;
42148;SDS011;64624;47.208;8.706;2024-01-15T06:17:46;16.20;;;7.40;;
42148;SDS011;64624;47.208;8.706;2024-01-15T06:20:11;14.55;;;7.75;;
42148;SDS011;64624;47.208;8.706;2024-01-15T06:22:38;16.35;;;6.68;;
42148;SDS011;64624;47.208;8.706;2024-01-15T06:25:05;15.57;;;7.68;;
42148;SDS011;64624;47.208;8.706;2024-01-15T06:27:36;15.70;;;7.85;;
42148;SDS011;64624;47.208;8.706;2024-01-15T06:30:02;14.25;;;6.88;;
42148;SDS011;64624;47.208;8.706;2024-01-15T06:32:28;12.68;;;6.63;;
42148;SDS011;64624;47.208;8.706;2024-01-15T06:34:55;13.82;;;7.47;;
42148;SDS011;64624;47.208;8.706;2024-01-15T06:37:20;16.00;;;7.72;;
42148;SDS011;64624;47.208;8.706;2024-01-15T06:39:46;14.98;;;7.28;;
42148;SDS011;64624;47.208;8.706;2024-01-15T06:42:12;13.52;;;7.30;;
42148;SDS011;64624;47.208;8.706;2024-01-15T06:44:37;14.00;;;8.43;;
42148;SDS011;64624;47.208;8.706;2024-01-15T06:47:03;13.68;;;7.38;;
42148;SDS011;64624;47.208;8.706;2024-01-15T06:49:30;15.60;;;8.00;;
42148;SDS011;64624;47.208;8.706;2024-01-15T06:51:56;14.60;;;7.03;;
42148;SDS011;64624;47.208;8.706;2024-01-15T06:54:22;13.30;;;6.90;;
42148;SDS011;64624;47.208;8.706;2024-01-15T06:56:49;14.35;;;7.32;;
42148;SDS011;64624;47.208;8.706;2024-01-15T06:59:15;12.45;;;6.80;;
42148;SDS011;64624;47.208;8.706;2024-01-15T07:01:41;12.05;;;6.22;;
42148;SDS011;64624;47.208;8.706;2024-01-15T07:04:07;14.73;;;7.43;;
42148;SDS011;64624;47.208;8.706;2024-01-15T07:06:33;13.85;;;6.55;;
42148;SDS011;64624;47.208;8.706;2024-01-15T07:09:01;12.02;;;5.90;;
42148;SDS011;64624;47.208;8.706;2024-01-15T07:11:27;13.88;;;6.20;;
42148;SDS011;64624;47.208;8.706;2024-01-15T07:13:53;13.98;;;6.43;;
42148;SDS011;64624;47.208;8.706;2024-01-15T07:16:19;12.65;;;6.30;;
42148;SDS011;64624;47.208;8.706;2024-01-15T07:18:44;13.75;;;7.53;;
42148;SDS011;64624;47.208;8.706;2024-01-15T07:21:10;12.80;;;6.88;;
42148;SDS011;64624;47.208;8.706;2024-01-15T07:23:36;12.88;;;7.05;;
42148;SDS011;64624;47.208;8.706;2024-01-15T07:26:01;14.15;;;7.43;;
42148;SDS011;64624;47.208;8.706;2024-01-15T07:28:31;11.48;;;6.00;;
42148;SDS011;64624;47.208;8.706;2024-01-15T07:30:56;12.63;;;6.18;;
42148;SDS011;64624;47.208;8.706;2024-01-15T07:33:22;12.38;;;7.28;;
42148;SDS011;64624;47.208;8.706;2024-01-15T07:35:48;12.25;;;6.28;;
42148;SDS011;64624;47.208;8.706;2024-01-15T07:38:13;11.20;;;6.55;;
42148;SDS011;64624;47.208;8.706;2024-01-15T07:40:39;13.63;;;7.68;;
42148;SDS011;64624;47.208;8.706;2024-01-15T07:43:05;14.05;;;7.25;;
42148;SDS011;64624;47.208;8.706;2024-01-15T07:45:30;15.95;;;7.40;;
42148;SDS011;64624;47.208;8.706;2024-01-15T07:47:56;14.93;;;7.13;;
42148;SDS011;64624;47.208;8.706;2024-01-15T07:50:22;14.15;;;7.20;;
42148;SDS011;64624;47.208;8.706;2024-01-15T07:52:47;13.30;;;6.72;;
42148;SDS011;64624;47.208;8.706;2024-01-15T07:55:13;14.13;;;7.20;;
42148;SDS011;64624;47.208;8.706;2024-01-15T07:57:39;11.80;;;6.40;;
42148;SDS011;64624;47.208;8.706;2024-01-15T08:00:05;12.98;;;6.82;;
42148;SDS011;64624;47.208;8.706;2024-01-15T08:02:31;11.55;;;6.30;;
42148;SDS011;64624;47.208;8.706;2024-01-15T08:04:57;12.68;;;7.15;;
42148;SDS011;64624;47.208;8.706;2024-01-15T08:07:24;12.73;;;6.72;;
42148;SDS011;64624;47.208;8.706;2024-01-15T08:09:50;14.25;;;7.07;;
42148;SDS011;64624;47.208;8.706;2024-01-15T08:12:17;14.23;;;7.82;;
42148;SDS011;64624;47.208;8.706;2024-01-15T08:14:42;11.38;;;6.55;;
42148;SDS011;64624;47.208;8.706;2024-01-15T08:17:08;13.63;;;7.20;;
42148;SDS011;64624;47.208;8.706;2024-01-15T08:19:35;12.30;;;7.20;;
42148;SDS011;64624;47.208;8.706;2024-01-15T08:22:00;12.65;;;7.90;;
42148;SDS011;64624;47.208;8.706;2024-01-15T08:24:26;14.65;;;7.03;;
42148;SDS011;64624;47.208;8.706;2024-01-15T08:26:53;15.27;;;7.82;;
42148;SDS011;64624;47.208;8.706;2024-01-15T08:29:19;13.38;;;7.72;;
42148;SDS011;64624;47.208;8.706;2024-01-15T08:31:46;14.73;;;7.70;;
42148;SDS011;64624;47.208;8.706;2024-01-15T08:34:11;14.70;;;8.25;;
42148;SDS011;64624;47.208;8.706;2024-01-15T08:36:37;14.85;;;7.53;;
42148;SDS011;64624;47.208;8.706;2024-01-15T08:39:03;14.50;;;7.82;;
42148;SDS011;64624;47.208;8.706;2024-01-15T08:41:31;11.88;;;7.72;;
42148;SDS011;64624;47.208;8.706;2024-01-15T08:43:57;14.30;;;7.35;;
42148;SDS011;64624;47.208;8.706;2024-01-15T08:46:23;12.40;;;6.60;;
42148;SDS011;64624;47.208;8.706;2024-01-15T08:48:49;14.43;;;7.28;;
42148;SDS011;64624;47.208;8.706;2024-01-15T08:51:16;12.75;;;7.20;;
42148;SDS011;64624;47.208;8.706;2024-01-15T08:53:43;12.32;;;6.95;;
42148;SDS011;64624;47.208;8.706;2024-01-15T08:56:09;12.55;;;7.18;;
42148;SDS011;64624;47.208;8.706;2024-01-15T08:58:34;13.25;;;7.10;;
42148;SDS011;64624;47.208;8.706;2024-01-15T09:01:00;14.48;;;7.05;;
42148;SDS011;64624;47.208;8.706;2024-01-15T09:03:26;15.98;;;6.47;;
42148;SDS011;64624;47.208;8.706;2024-01-15T09:05:52;13.98;;;6.15;;
42148;SDS011;64624;47.208;8.706;2024-01-15T09:08:19;14.25;;;6.60;;
42148;SDS011;64624;47.208;8.706;2024-01-15T09:10:46;14.20;;;6.70;;
42148;SDS011;64624;47.208;8.706;2024-01-15T09:13:12;15.18;;;6.63;;
42148;SDS011;64624;47.208;8.706;2024-01-15T09:15:38;14.00;;;7.15;;
42148;SDS011;64624;47.208;8.706;2024-01-15T09:18:04;11.85;;;6.25;;
42148;SDS011;64624;47.208;8.706;2024-01-15T09:20:30;11.98;;;5.97;;
42148;SDS011;64624;47.208;8.706;2024-01-15T09:22:56;11.63;;;6.07;;
42148;SDS011;64624;47.208;8.706;2024-01-15T09:25:22;11.55;;;5.75;;
42148;SDS011;64624;47.208;8.706;2024-01-15T09:27:47;12.90;;;6.18;;
42148;SDS011;64624;47.208;8.706;2024-01-15T09:30:13;11.65;;;5.18;;
42148;SDS011;64624;47.208;8.706;2024-01-15T09:32:39;9.80;;;5.68;;
42148;SDS011;64624;47.208;8.706;2024-01-15T09:35:05;11.45;;;6.22;;
42148;SDS011;64624;47.208;8.706;2024-01-15T09:37:31;10.30;;;4.93;;
42148;SDS011;64624;47.208;8.706;2024-01-15T09:39:57;12.25;;;5.63;;
42148;SDS011;64624;47.208;8.706;2024-01-15T09:42:23;10.20;;;5.03;;
42148;SDS011;64624;47.208;8.706;2024-01-15T09:44:50;10.82;;;4.57;;
42148;SDS011;64624;47.208;8.706;2024-01-15T09:47:17;10.68;;;4.80;;
42148;SDS011;64624;47.208;8.706;2024-01-15T09:49:44;10.65;;;4.95;;
42148;SDS011;64624;47.208;8.706;2024-01-15T09:52:13;10.95;;;5.97;;
42148;SDS011;64624;47.208;8.706;2024-01-15T09:54:43;9.70;;;5.25;;
42148;SDS011;64624;47.208;8.706;2024-01-15T09:57:10;8.60;;;4.43;;
42148;SDS011;64624;47.208;8.706;2024-01-15T09:59:36;9.68;;;5.07;;
42148;SDS011;64624;47.208;8.706;2024-01-15T10:02:02;8.43;;;4.60;;
42148;SDS011;64624;47.208;8.706;2024-01-15T10:04:28;9.98;;;5.10;;
42148;SDS011;64624;47.208;8.706;2024-01-15T10:06:54;8.55;;;4.43;;
42148;SDS011;64624;47.208;8.706;2024-01-15T10:09:26;8.25;;;4.30;;
42148;SDS011;64624;47.208;8.706;2024-01-15T10:11:52;8.68;;;4.57;;
42148;SDS011;64624;47.208;8.706;2024-01-15T10:14:19;8.38;;;4.22;;
42148;SDS011;64624;47.208;8.706;2024-01-15T10:16:45;7.97;;;4.53;;
42148;SDS011;64624;47.208;8.706;2024-01-15T10:19:10;8.60;;;4.20;;
42148;SDS011;64624;47.208;8.706;2024-01-15T10:21:36;7.43;;;4.18;;
42148;SDS011;64624;47.208;8.706;2024-01-15T10:24:03;9.07;;;4.32;;
42148;SDS011;64624;47.208;8.706;2024-01-15T10:26:29;7.72;;;4.07;;
42148;SDS011;64624;47.208;8.706;2024-01-15T10:28:56;8.77;;;4.05;;
42148;SDS011;64624;47.208;8.706;2024-01-15T10:31:23;7.78;;;3.85;;
42148;SDS011;64624;47.208;8.706;2024-01-15T10:33:49;9.27;;;4.15;;
42148;SDS011;64624;47.208;8.706;2024-01-15T10:36:15;7.32;;;3.70;;
42148;SDS011;64624;47.208;8.706;2024-01-15T10:38:46;7.28;;;3.72;;
42148;SDS011;64624;47.208;8.706;2024-01-15T10:41:11;9.23;;;4.45;;
42148;SDS011;64624;47.208;8.706;2024-01-15T10:43:37;8.20;;;3.92;;
42148;SDS011;64624;47.208;8.706;2024-01-15T10:46:06;7.72;;;3.97;;
42148;SDS011;64624;47.208;8.706;2024-01-15T10:48:32;7.15;;;3.92;;
42148;SDS011;64624;47.208;8.706;2024-01-15T10:51:00;7.35;;;3.58;;
42148;SDS011;64624;47.208;8.706;2024-01-15T10:53:35;6.20;;;3.50;;
42148;SDS011;64624;47.208;8.706;2024-01-15T10:56:05;8.75;;;4.00;;
42148;SDS011;64624;47.208;8.706;2024-01-15T10:58:32;7.72;;;3.63;;
42148;SDS011;64624;47.208;8.706;2024-01-15T11:00:59;9.02;;;4.38;;
42148;SDS011;64624;47.208;8.706;2024-01-15T11:03:26;8.25;;;4.35;;
42148;SDS011;64624;47.208;8.706;2024-01-15T11:05:53;7.15;;;3.97;;
42148;SDS011;64624;47.208;8.706;2024-01-15T11:08:18;9.23;;;3.80;;
42148;SDS011;64624;47.208;8.706;2024-01-15T11:10:50;9.40;;;3.75;;
42148;SDS011;64624;47.208;8.706;2024-01-15T11:16:00;7.65;;;3.45;;
42148;SDS011;64624;47.208;8.706;2024-01-15T11:23:49;7.70;;;3.55;;
42148;SDS011;64624;47.208;8.706;2024-01-15T11:29:02;6.28;;;3.42;;
42148;SDS011;64624;47.208;8.706;2024-01-15T11:34:07;7.32;;;3.55;;
42148;SDS011;64624;47.208;8.706;2024-01-15T11:41:56;7.18;;;3.45;;
42148;SDS011;64624;47.208;8.706;2024-01-15T11:44:26;7.60;;;3.58;;
42148;SDS011;64624;47.208;8.706;2024-01-15T11:47:05;6.75;;;3.33;;
42148;SDS011;64624;47.208;8.706;2024-01-15T11:52:21;6.60;;;3.35;;
42148;SDS011;64624;47.208;8.706;2024-01-15T11:57:54;6.90;;;2.90;;
42148;SDS011;64624;47.208;8.706;2024-01-15T12:00:20;6.18;;;3.33;;
42148;SDS011;64624;47.208;8.706;2024-01-15T12:02:47;7.53;;;3.10;;
42148;SDS011;64624;47.208;8.706;2024-01-15T12:05:15;5.50;;;3.05;;
42148;SDS011;64624;47.208;8.706;2024-01-15T12:07:41;5.78;;;2.95;;
42148;SDS011;64624;47.208;8.706;2024-01-15T12:10:12;5.75;;;3.13;;
42148;SDS011;64624;47.208;8.706;2024-01-15T12:15:07;6.15;;;3.15;;
42148;SDS011;64624;47.208;8.706;2024-01-15T12:17:34;5.30;;;2.70;;
42148;SDS011;64624;47.208;8.706;2024-01-15T12:20:01;6.13;;;2.88;;
42148;SDS011;64624;47.208;8.706;2024-01-15T12:22:31;5.55;;;3.10;;
42148;SDS011;64624;47.208;8.706;2024-01-15T12:24:57;5.72;;;3.05;;
42148;SDS011;64624;47.208;8.706;2024-01-15T12:27:24;6.00;;;2.90;;
42148;SDS011;64624;47.208;8.706;2024-01-15T12:29:52;5.63;;;3.25;;
42148;SDS011;64624;47.208;8.706;2024-01-15T12:32:18;5.70;;;2.80;;
42148;SDS011;64624;47.208;8.706;2024-01-15T12:34:46;6.93;;;2.90;;
42148;SDS011;64624;47.208;8.706;2024-01-15T12:37:13;6.57;;;3.00;;
42148;SDS011;64624;47.208;8.706;2024-01-15T12:39:41;6.68;;;3.00;;
42148;SDS011;64624;47.208;8.706;2024-01-15T12:42:09;5.90;;;2.97;;
42148;SDS011;64624;47.208;8.706;2024-01-15T12:44:35;5.50;;;2.75;;
42148;SDS011;64624;47.208;8.706;2024-01-15T12:47:03;6.05;;;3.03;;
42148;SDS011;64624;47.208;8.706;2024-01-15T12:49:29;7.57;;;3.28;;
42148;SDS011;64624;47.208;8.706;2024-01-15T12:51:57;7.30;;;3.20;;
42148;SDS011;64624;47.208;8.706;2024-01-15T12:54:24;5.43;;;2.95;;
42148;SDS011;64624;47.208;8.706;2024-01-15T12:56:50;5.82;;;3.03;;
42148;SDS011;64624;47.208;8.706;2024-01-15T12:59:16;7.13;;;2.88;;
42148;SDS011;64624;47.208;8.706;2024-01-15T13:01:43;5.25;;;2.45;;
42148;SDS011;64624;47.208;8.706;2024-01-15T13:04:10;4.95;;;2.33;;
42148;SDS011;64624;47.208;8.706;2024-01-15T13:06:36;5.47;;;2.53;;
42148;SDS011;64624;47.208;8.706;2024-01-15T13:09:05;6.53;;;3.05;;
42148;SDS011;64624;47.208;8.706;2024-01-15T13:11:32;5.38;;;2.70;;
42148;SDS011;64624;47.208;8.706;2024-01-15T13:13:58;5.95;;;3.28;;
42148;SDS011;64624;47.208;8.706;2024-01-15T13:16:27;4.97;;;2.85;;
42148;SDS011;64624;47.208;8.706;2024-01-15T13:18:54;5.80;;;2.65;;
42148;SDS011;64624;47.208;8.706;2024-01-15T13:21:21;5.50;;;2.72;;
42148;SDS011;64624;47.208;8.706;2024-01-15T13:23:47;5.30;;;2.30;;
42148;SDS011;64624;47.208;8.706;2024-01-15T13:26:13;5.50;;;2.47;;
42148;SDS011;64624;47.208;8.706;2024-01-15T13:28:39;5.63;;;2.85;;
42148;SDS011;64624;47.208;8.706;2024-01-15T13:31:06;5.38;;;2.58;;
42148;SDS011;64624;47.208;8.706;2024-01-15T13:33:33;4.75;;;2.40;;
42148;SDS011;64624;47.208;8.706;2024-01-15T13:36:01;4.68;;;2.25;;
42148;SDS011;64624;47.208;8.706;2024-01-15T13:38:28;6.03;;;2.92;;
42148;SDS011;64624;47.208;8.706;2024-01-15T13:41:01;4.75;;;2.13;;
42148;SDS011;64624;47.208;8.706;2024-01-15T13:43:27;4.55;;;2.30;;
42148;SDS011;64624;47.208;8.706;2024-01-15T13:45:52;5.45;;;2.50;;
42148;SDS011;64624;47.208;8.706;2024-01-15T13:48:19;4.60;;;2.20;;
42148;SDS011;64624;47.208;8.706;2024-01-15T13:50:45;4.82;;;2.47;;
42148;SDS011;64624;47.208;8.706;2024-01-15T13:53:11;4.90;;;2.40;;
42148;SDS011;64624;47.208;8.706;2024-01-15T13:55:37;6.20;;;2.75;;
42148;SDS011;64624;47.208;8.706;2024-01-15T13:58:03;4.65;;;2.03;;
42148;SDS011;64624;47.208;8.706;2024-01-15T14:00:31;5.50;;;2.28;;
42148;SDS011;64624;47.208;8.706;2024-01-15T14:02:57;4.63;;;2.17;;
42148;SDS011;64624;47.208;8.706;2024-01-15T14:05:23;4.25;;;1.98;;
42148;SDS011;64624;47.208;8.706;2024-01-15T14:07:48;4.40;;;2.15;;
42148;SDS011;64624;47.208;8.706;2024-01-15T14:10:14;4.88;;;2.40;;
42148;SDS011;64624;47.208;8.706;2024-01-15T14:12:40;4.35;;;2.00;;
42148;SDS011;64624;47.208;8.706;2024-01-15T14:15:06;4.68;;;2.25;;
42148;SDS011;64624;47.208;8.706;2024-01-15T14:17:33;5.35;;;2.10;;
42148;SDS011;64624;47.208;8.706;2024-01-15T14:19:58;5.18;;;2.53;;
42148;SDS011;64624;47.208;8.706;2024-01-15T14:22:24;5.18;;;2.17;;
42148;SDS011;64624;47.208;8.706;2024-01-15T14:24:50;5.22;;;2.45;;
42148;SDS011;64624;47.208;8.706;2024-01-15T14:27:16;4.80;;;2.28;;
42148;SDS011;64624;47.208;8.706;2024-01-15T14:29:42;5.72;;;2.17;;
42148;SDS011;64624;47.208;8.706;2024-01-15T14:32:07;4.85;;;2.35;;
42148;SDS011;64624;47.208;8.706;2024-01-15T14:34:33;4.50;;;2.13;;
42148;SDS011;64624;47.208;8.706;2024-01-15T14:37:02;4.03;;;2.03;;
42148;SDS011;64624;47.208;8.706;2024-01-15T14:39:28;4.93;;;2.40;;
42148;SDS011;64624;47.208;8.706;2024-01-15T14:41:54;4.07;;;2.00;;
42148;SDS011;64624;47.208;8.706;2024-01-15T14:44:19;4.80;;;2.58;;
42148;SDS011;64624;47.208;8.706;2024-01-15T14:46:46;4.63;;;2.15;;
42148;SDS011;64624;47.208;8.706;2024-01-15T14:49:11;6.07;;;2.85;;
42148;SDS011;64624;47.208;8.706;2024-01-15T14:51:37;4.90;;;2.10;;
42148;SDS011;64624;47.208;8.706;2024-01-15T14:54:03;5.15;;;2.20;;
42148;SDS011;64624;47.208;8.706;2024-01-15T14:56:29;4.65;;;2.45;;
42148;SDS011;64624;47.208;8.706;2024-01-15T14:58:54;5.22;;;2.40;;
42148;SDS011;64624;47.208;8.706;2024-01-15T15:01:20;5.00;;;2.42;;
42148;SDS011;64624;47.208;8.706;2024-01-15T15:03:47;5.18;;;2.20;;